sensor_id;sensor_type;location;lat;lon;timestamp;pressure;altitude;pressure_sealevel;temperature;humidity
72802;BME280;61891;55.818;37.084;2022-12-24T00:01:13;98543.63;;;2.78;78.75
72802;BME280;61891;55.818;37.084;2022-12-24T00:03:39;98526.13;;;2.59;78.41
72802;BME280;61891;55.818;37.084;2022-12-24T00:06:16;98567.31;;;2.77;78.78
72802;BME280;61891;55.818;37.084;2022-12-24T00:08:43;98555.19;;;2.76;78.75
72802;BME280;61891;55.818;37.084;2022-12-24T00:11:08;98550.63;;;2.78;78.53
72802;BME280;61891;55.818;37.084;2022-12-24T00:13:34;98547.47;;;2.74;78.68
72802;BME280;61891;55.818;37.084;2022-12-24T00:16:00;98560.41;;;2.76;78.57
72802;BME280;61891;55.818;37.084;2022-12-24T00:18:26;98530.53;;;2.59;78.74
72802;BME280;61891;55.818;37.084;2022-12-24T00:20:52;98542.78;;;2.68;78.89
72802;BME280;61891;55.818;37.084;2022-12-24T00:23:18;98544.56;;;2.68;78.59
72802;BME280;61891;55.818;37.084;2022-12-24T00:25:44;98546.91;;;2.71;78.37
72802;BME280;61891;55.818;37.084;2022-12-24T00:28:11;98562.06;;;2.77;78.72
72802;BME280;61891;55.818;37.084;2022-12-24T00:30:37;98576.13;;;2.76;78.39
72802;BME280;61891;55.818;37.084;2022-12-24T00:33:04;98568.25;;;2.76;78.52
72802;BME280;61891;55.818;37.084;2022-12-24T00:35:38;98562.88;;;2.58;78.46
72802;BME280;61891;55.818;37.084;2022-12-24T00:38:05;98547.88;;;2.60;78.28
72802;BME280;61891;55.818;37.084;2022-12-24T00:40:31;98549.94;;;2.66;78.52
72802;BME280;61891;55.818;37.084;2022-12-24T00:42:57;98518.81;;;2.34;78.66
72802;BME280;61891;55.818;37.084;2022-12-24T00:45:23;98531.91;;;2.53;78.58
72802;BME280;61891;55.818;37.084;2022-12-24T00:47:49;98569.38;;;2.73;78.78
72802;BME280;61891;55.818;37.084;2022-12-24T00:50:15;98549.53;;;2.61;78.49
72802;BME280;61891;55.818;37.084;2022-12-24T00:52:41;98572.13;;;2.72;78.76
72802;BME280;61891;55.818;37.084;2022-12-24T00:55:06;98565.22;;;2.71;78.70
72802;BME280;61891;55.818;37.084;2022-12-24T00:57:32;98568.53;;;2.73;79.06
72802;BME280;61891;55.818;37.084;2022-12-24T00:59:58;98565.66;;;2.66;78.97
72802;BME280;61891;55.818;37.084;2022-12-24T01:02:24;98579.97;;;2.72;78.83
72802;BME280;61891;55.818;37.084;2022-12-24T01:04:49;98555.72;;;2.70;78.98
72802;BME280;61891;55.818;37.084;2022-12-24T01:07:41;98562.34;;;2.74;79.05
72802;BME280;61891;55.818;37.084;2022-12-24T01:10:09;98559.72;;;2.74;78.87
72802;BME280;61891;55.818;37.084;2022-12-24T01:12:37;98536.44;;;2.61;78.91
72802;BME280;61891;55.818;37.084;2022-12-24T01:15:03;98556.16;;;2.75;78.77
72802;BME280;61891;55.818;37.084;2022-12-24T01:17:31;98499.53;;;2.45;78.83
72802;BME280;61891;55.818;37.084;2022-12-24T01:19:57;98552.16;;;2.61;78.74
72802;BME280;61891;55.818;37.084;2022-12-24T01:22:22;98559.03;;;2.72;79.18
72802;BME280;61891;55.818;37.084;2022-12-24T01:24:48;98563.31;;;2.73;79.08
72802;BME280;61891;55.818;37.084;2022-12-24T01:27:14;98536.72;;;2.58;78.96
72802;BME280;61891;55.818;37.084;2022-12-24T01:29:39;98553.13;;;2.70;79.01
72802;BME280;61891;55.818;37.084;2022-12-24T01:32:05;98554.63;;;2.72;79.08
72802;BME280;61891;55.818;37.084;2022-12-24T01:34:31;98542.38;;;2.63;79.02
72802;BME280;61891;55.818;37.084;2022-12-24T01:36:57;98540.59;;;2.64;79.15
72802;BME280;61891;55.818;37.084;2022-12-24T01:39:23;98555.47;;;2.73;78.91
72802;BME280;61891;55.818;37.084;2022-12-24T01:41:49;98535.63;;;2.61;79.08
72802;BME280;61891;55.818;37.084;2022-12-24T01:44:37;98518.25;;;2.40;79.00
72802;BME280;61891;55.818;37.084;2022-12-24T01:47:08;98557.25;;;2.72;79.12
72802;BME280;61891;55.818;37.084;2022-12-24T01:49:39;98473.66;;;2.22;78.95
72802;BME280;61891;55.818;37.084;2022-12-24T01:52:10;98550.34;;;2.62;78.93
72802;BME280;61891;55.818;37.084;2022-12-24T01:54:42;98571.16;;;2.73;79.28
72802;BME280;61891;55.818;37.084;2022-12-24T01:57:12;98513.44;;;2.36;79.42
72802;BME280;61891;55.818;37.084;2022-12-24T01:59:41;98509.19;;;2.35;79.13
72802;BME280;61891;55.818;37.084;2022-12-24T02:02:09;98578.03;;;2.74;79.09
72802;BME280;61891;55.818;37.084;2022-12-24T02:07:12;98565.22;;;2.71;79.23
72802;BME280;61891;55.818;37.084;2022-12-24T02:09:38;98579.97;;;2.72;78.96
72802;BME280;61891;55.818;37.084;2022-12-24T02:12:04;98585.06;;;2.73;79.26
72802;BME280;61891;55.818;37.084;2022-12-24T02:14:31;98579.69;;;2.65;78.79
72802;BME280;61891;55.818;37.084;2022-12-24T02:17:44;98587.53;;;2.75;79.06
72802;BME280;61891;55.818;37.084;2022-12-24T02:26:26;98524.03;;;2.34;78.92
72802;BME280;61891;55.818;37.084;2022-12-24T02:36:48;98574.72;;;2.62;79.04
72802;BME280;61891;55.818;37.084;2022-12-24T02:39:22;98567.97;;;2.59;79.40
72802;BME280;61891;55.818;37.084;2022-12-24T02:41:52;98574.59;;;2.64;79.43
72802;BME280;61891;55.818;37.084;2022-12-24T02:44:35;98552.28;;;2.50;79.33
72802;BME280;61891;55.818;37.084;2022-12-24T02:47:05;98574.72;;;2.62;79.17
72802;BME280;61891;55.818;37.084;2022-12-24T02:49:31;98567.28;;;2.57;79.35
72802;BME280;61891;55.818;37.084;2022-12-24T02:51:57;98577.22;;;2.64;79.24
72802;BME280;61891;55.818;37.084;2022-12-24T02:54:23;98588.09;;;2.69;79.53
72802;BME280;61891;55.818;37.084;2022-12-24T03:05:22;98591.81;;;2.66;79.29
72802;BME280;61891;55.818;37.084;2022-12-24T03:08:10;98592.78;;;2.65;79.22
72802;BME280;61891;55.818;37.084;2022-12-24T03:11:05;98578.03;;;2.64;79.49
72802;BME280;61891;55.818;37.084;2022-12-24T03:13:29;98569.63;;;2.61;79.34
72802;BME280;61891;55.818;37.084;2022-12-24T03:15:54;98569.22;;;2.65;79.47
72802;BME280;61891;55.818;37.084;2022-12-24T03:18:23;98563.03;;;2.66;79.19
72802;BME280;61891;55.818;37.084;2022-12-24T03:24:00;98562.88;;;2.58;79.21
72802;BME280;61891;55.818;37.084;2022-12-24T03:26:28;98572.66;;;2.66;79.25
72802;BME280;61891;55.818;37.084;2022-12-24T03:28:55;98549.25;;;2.54;79.36
72802;BME280;61891;55.818;37.084;2022-12-24T03:31:21;98572.53;;;2.67;79.40
72802;BME280;61891;55.818;37.084;2022-12-24T03:33:47;98544.28;;;2.61;79.59
72802;BME280;61891;55.818;37.084;2022-12-24T03:36:13;98569.22;;;2.75;79.66
72802;BME280;61891;55.818;37.084;2022-12-24T03:38:39;98564.00;;;2.65;79.23
72802;BME280;61891;55.818;37.084;2022-12-24T03:41:05;98571.97;;;2.73;79.34
72802;BME280;61891;55.818;37.084;2022-12-24T03:43:31;98554.63;;;2.63;79.24
72802;BME280;61891;55.818;37.084;2022-12-24T03:45:57;98548.56;;;2.52;79.15
72802;BME280;61891;55.818;37.084;2022-12-24T03:48:22;98573.50;;;2.66;79.25
72802;BME280;61891;55.818;37.084;2022-12-24T03:50:48;98558.22;;;2.62;79.37
72802;BME280;61891;55.818;37.084;2022-12-24T03:53:14;98579.41;;;2.68;79.46
72802;BME280;61891;55.818;37.084;2022-12-24T03:55:39;98563.03;;;2.56;79.32
72802;BME280;61891;55.818;37.084;2022-12-24T03:58:05;98584.09;;;2.65;79.40
72802;BME280;61891;55.818;37.084;2022-12-24T04:00:31;98548.41;;;2.44;79.36
72802;BME280;61891;55.818;37.084;2022-12-24T04:02:57;98579.00;;;2.63;79.30
72802;BME280;61891;55.818;37.084;2022-12-24T04:05:22;98538.34;;;2.40;79.41
72802;BME280;61891;55.818;37.084;2022-12-24T04:07:48;98561.22;;;2.57;79.67
72802;BME280;61891;55.818;37.084;2022-12-24T04:10:14;98561.22;;;2.57;79.50
72802;BME280;61891;55.818;37.084;2022-12-24T04:12:40;98572.25;;;2.61;79.45
72802;BME280;61891;55.818;37.084;2022-12-24T04:15:06;98567.84;;;2.61;79.30
72802;BME280;61891;55.818;37.084;2022-12-24T04:17:32;98568.13;;;2.58;79.20
72802;BME280;61891;55.818;37.084;2022-12-24T04:19:58;98528.72;;;2.40;79.28
72802;BME280;61891;55.818;37.084;2022-12-24T04:22:24;98529.56;;;2.41;79.26
72802;BME280;61891;55.818;37.084;2022-12-24T04:24:50;98558.75;;;2.55;79.39
72802;BME280;61891;55.818;37.084;2022-12-24T04:27:15;98537.94;;;2.44;79.18
72802;BME280;61891;55.818;37.084;2022-12-24T04:29:41;98518.53;;;2.37;79.21
72802;BME280;61891;55.818;37.084;2022-12-24T04:32:07;98555.72;;;2.60;79.04
72802;BME280;61891;55.818;37.084;2022-12-24T04:34:34;98565.38;;;2.59;79.27
72802;BME280;61891;55.818;37.084;2022-12-24T04:37:00;98528.59;;;2.42;78.93
72802;BME280;61891;55.818;37.084;2022-12-24T04:39:26;98495.53;;;2.21;79.22
72802;BME280;61891;55.818;37.084;2022-12-24T04:41:52;98547.59;;;2.53;79.14
72802;BME280;61891;55.818;37.084;2022-12-24T04:44:18;98551.03;;;2.54;79.16
72802;BME280;61891;55.818;37.084;2022-12-24T04:46:43;98539.75;;;2.53;79.03
72802;BME280;61891;55.818;37.084;2022-12-24T04:49:09;98536.31;;;2.43;79.29
72802;BME280;61891;55.818;37.084;2022-12-24T04:51:35;98538.34;;;2.40;79.13
72802;BME280;61891;55.818;37.084;2022-12-24T04:54:01;98560.81;;;2.52;79.36
72802;BME280;61891;55.818;37.084;2022-12-24T04:56:29;98552.97;;;2.52;79.76
72802;BME280;61891;55.818;37.084;2022-12-24T04:58:57;98546.63;;;2.54;79.24
72802;BME280;61891;55.818;37.084;2022-12-24T05:01:26;98520.34;;;2.46;79.37
72802;BME280;61891;55.818;37.084;2022-12-24T05:03:52;98512.91;;;2.42;79.22
72802;BME280;61891;55.818;37.084;2022-12-24T05:06:20;98498.31;;;2.39;79.69
72802;BME280;61891;55.818;37.084;2022-12-24T05:08:46;98520.75;;;2.51;79.49
72802;BME280;61891;55.818;37.084;2022-12-24T05:11:12;98498.59;;;2.46;79.38
72802;BME280;61891;55.818;37.084;2022-12-24T05:13:44;98505.06;;;2.51;79.32
72802;BME280;61891;55.818;37.084;2022-12-24T05:16:11;98528.47;;;2.63;79.32
72802;BME280;61891;55.818;37.084;2022-12-24T05:18:37;98514.28;;;2.65;79.48
72802;BME280;61891;55.818;37.084;2022-12-24T05:21:12;98522.97;;;2.66;79.04
72802;BME280;61891;55.818;37.084;2022-12-24T05:23:38;98500.38;;;2.45;79.15
72802;BME280;61891;55.818;37.084;2022-12-24T05:26:29;98467.88;;;2.29;79.05
72802;BME280;61891;55.818;37.084;2022-12-24T05:28:57;98511.94;;;2.52;79.30
72802;BME280;61891;55.818;37.084;2022-12-24T05:31:24;98523.09;;;2.64;79.18
72802;BME280;61891;55.818;37.084;2022-12-24T05:33:50;98520.88;;;2.59;79.05
72802;BME280;61891;55.818;37.084;2022-12-24T05:36:16;98518.56;;;2.56;79.17
72802;BME280;61891;55.818;37.084;2022-12-24T05:38:42;98516.75;;;2.57;79.24
72802;BME280;61891;55.818;37.084;2022-12-24T05:41:08;98536.84;;;2.56;79.02
72802;BME280;61891;55.818;37.084;2022-12-24T05:43:35;98500.66;;;2.42;79.20
72802;BME280;61891;55.818;37.084;2022-12-24T05:46:04;98516.34;;;2.52;79.14
72802;BME280;61891;55.818;37.084;2022-12-24T05:48:30;98499.13;;;2.49;79.15
72802;BME280;61891;55.818;37.084;2022-12-24T05:50:56;98486.59;;;2.43;79.24
72802;BME280;61891;55.818;37.084;2022-12-24T05:53:22;98508.63;;;2.50;79.44
72802;BME280;61891;55.818;37.084;2022-12-24T05:55:48;98514.00;;;2.49;79.41
72802;BME280;61891;55.818;37.084;2022-12-24T05:58:14;98505.75;;;2.44;79.01
72802;BME280;61891;55.818;37.084;2022-12-24T06:00:40;98512.22;;;2.49;79.29
72802;BME280;61891;55.818;37.084;2022-12-24T06:03:06;98492.53;;;2.36;79.45
72802;BME280;61891;55.818;37.084;2022-12-24T06:05:32;98517.44;;;2.49;79.41
72802;BME280;61891;55.818;37.084;2022-12-24T06:07:57;98474.34;;;2.24;79.20
72802;BME280;61891;55.818;37.084;2022-12-24T06:10:23;98496.50;;;2.40;79.42
72802;BME280;61891;55.818;37.084;2022-12-24T06:12:49;98514.84;;;2.49;79.45
72802;BME280;61891;55.818;37.084;2022-12-24T06:15:14;98505.59;;;2.45;79.25
72802;BME280;61891;55.818;37.084;2022-12-24T06:17:41;98525.72;;;2.54;79.46
72802;BME280;61891;55.818;37.084;2022-12-24T06:20:07;98461.41;;;2.23;79.30
72802;BME280;61891;55.818;37.084;2022-12-24T06:22:33;98517.16;;;2.52;79.29
72802;BME280;61891;55.818;37.084;2022-12-24T06:24:59;98504.38;;;2.49;79.62
72802;BME280;61891;55.818;37.084;2022-12-24T06:27:24;98521.44;;;2.53;79.46
72802;BME280;61891;55.818;37.084;2022-12-24T06:29:50;98484.00;;;2.34;79.31
72802;BME280;61891;55.818;37.084;2022-12-24T06:32:16;98492.66;;;2.34;79.51
72802;BME280;61891;55.818;37.084;2022-12-24T06:34:41;98475.31;;;2.23;79.58
72802;BME280;61891;55.818;37.084;2022-12-24T06:37:07;98494.59;;;2.42;79.93
72802;BME280;61891;55.818;37.084;2022-12-24T06:39:34;98510.56;;;2.48;79.69
72802;BME280;61891;55.818;37.084;2022-12-24T06:42:00;98518.69;;;2.45;79.47
72802;BME280;61891;55.818;37.084;2022-12-24T06:44:25;98513.31;;;2.47;79.89
72802;BME280;61891;55.818;37.084;2022-12-24T06:46:51;98530.78;;;2.46;80.08
72802;BME280;61891;55.818;37.084;2022-12-24T06:49:17;98502.56;;;2.40;79.60
72802;BME280;61891;55.818;37.084;2022-12-24T06:51:43;98506.56;;;2.44;79.78
72802;BME280;61891;55.818;37.084;2022-12-24T06:54:08;98512.34;;;2.48;79.70
72802;BME280;61891;55.818;37.084;2022-12-24T06:56:34;98509.59;;;2.49;80.24
72802;BME280;61891;55.818;37.084;2022-12-24T06:59:00;98483.84;;;2.35;79.71
72802;BME280;61891;55.818;37.084;2022-12-24T07:01:25;98515.53;;;2.51;80.16
72802;BME280;61891;55.818;37.084;2022-12-24T07:03:51;98510.16;;;2.53;80.25
72802;BME280;61891;55.818;37.084;2022-12-24T07:06:20;98505.75;;;2.53;79.86
72802;BME280;61891;55.818;37.084;2022-12-24T07:08:48;98483.72;;;2.46;80.18
72802;BME280;61891;55.818;37.084;2022-12-24T07:11:14;98517.31;;;2.61;80.01
72802;BME280;61891;55.818;37.084;2022-12-24T07:13:39;98514.41;;;2.64;79.93
72802;BME280;61891;55.818;37.084;2022-12-24T07:16:05;98522.97;;;2.66;80.00
72802;BME280;61891;55.818;37.084;2022-12-24T07:18:32;98500.38;;;2.55;79.63
72802;BME280;61891;55.818;37.084;2022-12-24T07:20:58;98486.34;;;2.46;79.64
72802;BME280;61891;55.818;37.084;2022-12-24T07:23:24;98503.81;;;2.55;79.68
72802;BME280;61891;55.818;37.084;2022-12-24T07:25:49;98509.88;;;2.56;79.92
72802;BME280;61891;55.818;37.084;2022-12-24T07:28:15;98495.41;;;2.52;79.65
72802;BME280;61891;55.818;37.084;2022-12-24T07:30:41;98488.25;;;2.44;79.91
72802;BME280;61891;55.818;37.084;2022-12-24T07:33:06;98529.44;;;2.62;79.62
72802;BME280;61891;55.818;37.084;2022-12-24T07:35:33;98525.44;;;2.57;79.32
72802;BME280;61891;55.818;37.084;2022-12-24T07:37:59;98518.81;;;2.53;79.54
72802;BME280;61891;55.818;37.084;2022-12-24T07:40:24;98523.91;;;2.55;79.48
72802;BME280;61891;55.818;37.084;2022-12-24T07:42:50;98501.06;;;2.38;79.14
72802;BME280;61891;55.818;37.084;2022-12-24T07:45:16;98507.38;;;2.35;79.40
72802;BME280;61891;55.818;37.084;2022-12-24T07:47:41;98512.75;;;2.43;79.41
72802;BME280;61891;55.818;37.084;2022-12-24T07:50:07;98519.22;;;2.39;79.71
72802;BME280;61891;55.818;37.084;2022-12-24T07:52:33;98506.69;;;2.33;79.68
72802;BME280;61891;55.818;37.084;2022-12-24T07:54:59;98486.72;;;2.22;79.29
72802;BME280;61891;55.818;37.084;2022-12-24T07:57:24;98480.66;;;2.12;79.54
72802;BME280;61891;55.818;37.084;2022-12-24T07:59:50;98493.19;;;2.18;79.59
72802;BME280;61891;55.818;37.084;2022-12-24T08:02:16;98515.22;;;2.35;79.41
72802;BME280;61891;55.818;37.084;2022-12-24T08:04:41;98503.25;;;2.23;79.60
72802;BME280;61891;55.818;37.084;2022-12-24T08:07:07;98509.03;;;2.36;79.79
72802;BME280;61891;55.818;37.084;2022-12-24T08:09:37;98465.38;;;2.08;79.87
72802;BME280;61891;55.818;37.084;2022-12-24T08:12:03;98524.44;;;2.39;80.44
72802;BME280;61891;55.818;37.084;2022-12-24T08:14:29;98522.53;;;2.41;79.67
72802;BME280;61891;55.818;37.084;2022-12-24T08:16:55;98525.00;;;2.43;79.95
72802;BME280;61891;55.818;37.084;2022-12-24T08:19:22;98514.13;;;2.38;80.04
72802;BME280;61891;55.818;37.084;2022-12-24T08:21:48;98514.41;;;2.44;79.90
72802;BME280;61891;55.818;37.084;2022-12-24T08:24:13;98515.25;;;2.45;79.93
72802;BME280;61891;55.818;37.084;2022-12-24T08:26:39;98510.84;;;2.45;79.81
72802;BME280;61891;55.818;37.084;2022-12-24T08:29:05;98517.72;;;2.46;79.75
72802;BME280;61891;55.818;37.084;2022-12-24T08:31:31;98507.41;;;2.45;79.89
72802;BME280;61891;55.818;37.084;2022-12-24T08:34:05;98526.38;;;2.47;79.67
72802;BME280;61891;55.818;37.084;2022-12-24T08:36:31;98504.63;;;2.46;79.51
72802;BME280;61891;55.818;37.084;2022-12-24T08:38:57;98509.72;;;2.48;79.67
72802;BME280;61891;55.818;37.084;2022-12-24T08:41:22;98521.84;;;2.49;79.72
72802;BME280;61891;55.818;37.084;2022-12-24T08:43:48;98506.97;;;2.49;79.83
72802;BME280;61891;55.818;37.084;2022-12-24T08:46:14;98499.97;;;2.50;79.67
72802;BME280;61891;55.818;37.084;2022-12-24T08:48:39;98486.75;;;2.42;79.63
72802;BME280;61891;55.818;37.084;2022-12-24T08:51:09;98518.97;;;2.52;80.08
72802;BME280;61891;55.818;37.084;2022-12-24T08:53:36;98504.91;;;2.43;79.93
72802;BME280;61891;55.818;37.084;2022-12-24T08:56:07;98488.38;;;2.33;79.94
72802;BME280;61891;55.818;37.084;2022-12-24T08:58:34;98501.19;;;2.46;80.12
72802;BME280;61891;55.818;37.084;2022-12-24T09:01:00;98499.53;;;2.45;79.98
72802;BME280;61891;55.818;37.084;2022-12-24T09:03:26;98473.38;;;2.25;79.55
72802;BME280;61891;55.818;37.084;2022-12-24T09:05:52;98497.63;;;2.37;79.84
72802;BME280;61891;55.818;37.084;2022-12-24T09:08:19;98492.13;;;2.40;79.82
72802;BME280;61891;55.818;37.084;2022-12-24T09:10:45;98503.00;;;2.45;79.87
72802;BME280;61891;55.818;37.084;2022-12-24T09:13:10;98467.19;;;2.26;79.65
72802;BME280;61891;55.818;37.084;2022-12-24T09:15:36;98485.22;;;2.39;80.03
72802;BME280;61891;55.818;37.084;2022-12-24T09:18:02;98472.00;;;2.31;79.63
72802;BME280;61891;55.818;37.084;2022-12-24T09:20:28;98499.28;;;2.48;79.26
72802;BME280;61891;55.818;37.084;2022-12-24T09:22:54;98480.41;;;2.35;79.39
72802;BME280;61891;55.818;37.084;2022-12-24T09:25:19;98498.59;;;2.46;79.23
72802;BME280;61891;55.818;37.084;2022-12-24T09:27:45;98496.94;;;2.45;79.04
72802;BME280;61891;55.818;37.084;2022-12-24T09:30:11;98493.50;;;2.44;79.43
72802;BME280;61891;55.818;37.084;2022-12-24T09:32:37;98457.00;;;2.23;79.33
72802;BME280;61891;55.818;37.084;2022-12-24T09:35:03;98495.16;;;2.45;78.82
72802;BME280;61891;55.818;37.084;2022-12-24T09:37:29;98496.25;;;2.43;78.85
72802;BME280;61891;55.818;37.084;2022-12-24T09:39:55;98477.66;;;2.36;78.81
72802;BME280;61891;55.818;37.084;2022-12-24T09:42:54;98490.19;;;2.42;78.76
72802;BME280;61891;55.818;37.084;2022-12-24T09:45:17;98493.75;;;2.41;78.79
72802;BME280;61891;55.818;37.084;2022-12-24T09:47:49;98496.66;;;2.38;78.84
72802;BME280;61891;55.818;37.084;2022-12-24T09:52:47;98458.94;;;2.12;78.40
72802;BME280;61891;55.818;37.084;2022-12-24T09:55:55;98484.25;;;2.21;78.42
72802;BME280;61891;55.818;37.084;2022-12-24T09:58:25;98487.56;;;2.23;78.28
72802;BME280;61891;55.818;37.084;2022-12-24T10:00:52;98494.59;;;2.32;78.37
72802;BME280;61891;55.818;37.084;2022-12-24T10:03:18;98477.94;;;2.23;78.38
72802;BME280;61891;55.818;37.084;2022-12-24T10:08:33;98496.66;;;2.38;78.66
72802;BME280;61891;55.818;37.084;2022-12-24T10:24:35;98495.41;;;2.42;77.95
72802;BME280;61891;55.818;37.084;2022-12-24T10:27:14;98394.94;;;1.77;77.99
72802;BME280;61891;55.818;37.084;2022-12-24T10:29:49;98498.16;;;2.41;77.95
72802;BME280;61891;55.818;37.084;2022-12-24T10:32:21;98388.47;;;1.72;77.97
72802;BME280;61891;55.818;37.084;2022-12-24T10:37:41;98480.28;;;2.36;78.18
72802;BME280;61891;55.818;37.084;2022-12-24T10:40:14;98488.53;;;2.41;78.13
72802;BME280;61891;55.818;37.084;2022-12-24T10:42:41;98493.75;;;2.41;77.99
72802;BME280;61891;55.818;37.084;2022-12-24T10:45:13;98497.91;;;2.44;77.98
72802;BME280;61891;55.818;37.084;2022-12-24T10:47:43;98499.69;;;2.43;77.81
72802;BME280;61891;55.818;37.084;2022-12-24T10:50:15;98482.75;;;2.38;77.93
72802;BME280;61891;55.818;37.084;2022-12-24T10:52:44;98481.22;;;2.35;78.00
72802;BME280;61891;55.818;37.084;2022-12-24T10:57:42;98506.56;;;2.44;77.67
72802;BME280;61891;55.818;37.084;2022-12-24T11:00:19;98494.72;;;2.40;77.87
72802;BME280;61891;55.818;37.084;2022-12-24T11:02:46;98510.56;;;2.39;77.92
72802;BME280;61891;55.818;37.084;2022-12-24T11:05:33;98495.97;;;2.36;77.90
72802;BME280;61891;55.818;37.084;2022-12-24T11:10:40;98515.25;;;2.45;77.86
72802;BME280;61891;55.818;37.084;2022-12-24T11:13:22;98508.34;;;2.34;77.60
72802;BME280;61891;55.818;37.084;2022-12-24T11:16:03;98526.81;;;2.42;77.83
72802;BME280;61891;55.818;37.084;2022-12-24T11:18:32;98525.41;;;2.38;77.86
72802;BME280;61891;55.818;37.084;2022-12-24T11:20:59;98451.59;;;1.86;77.71
72802;BME280;61891;55.818;37.084;2022-12-24T11:23:31;98525.81;;;2.34;77.89
72802;BME280;61891;55.818;37.084;2022-12-24T11:25:58;98529.25;;;2.34;77.73
72802;BME280;61891;55.818;37.084;2022-12-24T11:28:27;98541.38;;;2.35;77.61
72802;BME280;61891;55.818;37.084;2022-12-24T11:33:27;98513.97;;;2.30;77.83
72802;BME280;61891;55.818;37.084;2022-12-24T11:35:57;98533.94;;;2.40;78.00
72802;BME280;61891;55.818;37.084;2022-12-24T11:38:26;98534.09;;;2.39;77.90
72802;BME280;61891;55.818;37.084;2022-12-24T11:43:25;98509.59;;;2.30;77.85
72802;BME280;61891;55.818;37.084;2022-12-24T11:48:43;98549.09;;;2.46;77.65
72802;BME280;61891;55.818;37.084;2022-12-24T11:51:25;98537.25;;;2.42;77.91
72802;BME280;61891;55.818;37.084;2022-12-24T11:54:23;98550.47;;;2.50;77.58
72802;BME280;61891;55.818;37.084;2022-12-24T11:56:54;98567.56;;;2.54;78.13
72802;BME280;61891;55.818;37.084;2022-12-24T11:59:54;98564.94;;;2.54;78.04
72802;BME280;61891;55.818;37.084;2022-12-24T12:04:57;98551.31;;;2.51;77.94
72802;BME280;61891;55.818;37.084;2022-12-24T12:07:28;98517.41;;;2.20;77.87
72802;BME280;61891;55.818;37.084;2022-12-24T12:10:20;98575.53;;;2.53;77.78
72802;BME280;61891;55.818;37.084;2022-12-24T12:15:24;98598.53;;;2.49;77.79
72802;BME280;61891;55.818;37.084;2022-12-24T12:18:08;98589.16;;;2.47;77.79
72802;BME280;61891;55.818;37.084;2022-12-24T12:20:46;98582.16;;;2.47;78.09
72802;BME280;61891;55.818;37.084;2022-12-24T12:23:54;98590.53;;;2.51;77.75
72802;BME280;61891;55.818;37.084;2022-12-24T12:27:18;98564.50;;;2.30;78.00
72802;BME280;61891;55.818;37.084;2022-12-24T12:30:52;98610.25;;;2.55;78.08
72802;BME280;61891;55.818;37.084;2022-12-24T12:38:35;98614.78;;;2.53;77.90
72802;BME280;61891;55.818;37.084;2022-12-24T13:06:03;98640.81;;;2.64;77.74
72802;BME280;61891;55.818;37.084;2022-12-24T13:10:50;98559.88;;;2.03;77.87
72802;BME280;61891;55.818;37.084;2022-12-24T13:21:40;98624.63;;;2.30;78.00
72802;BME280;61891;55.818;37.084;2022-12-24T13:25:19;98527.47;;;1.75;77.74
72802;BME280;61891;55.818;37.084;2022-12-24T13:40:56;98689.97;;;2.61;77.85
72802;BME280;61891;55.818;37.084;2022-12-24T13:48:28;98698.25;;;2.66;77.70
72802;BME280;61891;55.818;37.084;2022-12-24T13:51:48;98698.38;;;2.64;77.58
72802;BME280;61891;55.818;37.084;2022-12-24T13:55:22;98568.69;;;1.72;77.89
72802;BME280;61891;55.818;37.084;2022-12-24T14:14:48;98736.25;;;2.70;77.70
72802;BME280;61891;55.818;37.084;2022-12-24T14:17:52;98561.63;;;1.63;77.37
72802;BME280;61891;55.818;37.084;2022-12-24T14:20:18;98751.34;;;2.87;77.61
72802;BME280;61891;55.818;37.084;2022-12-24T14:22:48;98756.84;;;2.84;77.71
72802;BME280;61891;55.818;37.084;2022-12-24T14:25:22;98764.56;;;2.85;77.51
72802;BME280;61891;55.818;37.084;2022-12-24T14:27:53;98547.41;;;1.46;77.59
72802;BME280;61891;55.818;37.084;2022-12-24T14:30:25;98765.91;;;2.80;77.78
72802;BME280;61891;55.818;37.084;2022-12-24T14:32:59;98769.50;;;2.79;77.85
72802;BME280;61891;55.818;37.084;2022-12-24T14:35:56;98635.66;;;2.03;77.54
72802;BME280;61891;55.818;37.084;2022-12-24T14:38:26;98729.59;;;2.56;77.62
72802;BME280;61891;55.818;37.084;2022-12-24T14:49:24;98726.44;;;2.52;77.48
72802;BME280;61891;55.818;37.084;2022-12-24T14:52:11;98793.78;;;2.90;77.69
72802;BME280;61891;55.818;37.084;2022-12-24T14:54:47;98798.75;;;2.94;77.38
72802;BME280;61891;55.818;37.084;2022-12-24T14:57:19;98765.09;;;2.79;77.50
72802;BME280;61891;55.818;37.084;2022-12-24T14:59:59;98795.16;;;2.95;77.48
72802;BME280;61891;55.818;37.084;2022-12-24T15:02:46;98794.19;;;2.96;77.60
72802;BME280;61891;55.818;37.084;2022-12-24T15:05:13;98806.91;;;3.00;77.46
72802;BME280;61891;55.818;37.084;2022-12-24T15:07:49;98773.22;;;2.86;77.22
72802;BME280;61891;55.818;37.084;2022-12-24T15:11:00;98746.41;;;2.53;77.34
72802;BME280;61891;55.818;37.084;2022-12-24T15:13:38;98813.75;;;2.91;77.36
72802;BME280;61891;55.818;37.084;2022-12-24T15:16:30;98789.72;;;2.77;77.23
72802;BME280;61891;55.818;37.084;2022-12-24T15:19:18;98782.84;;;2.76;77.34
72802;BME280;61891;55.818;37.084;2022-12-24T15:21:46;98798.88;;;2.92;77.46
72802;BME280;61891;55.818;37.084;2022-12-24T15:24:33;98803.16;;;2.93;77.18
72802;BME280;61891;55.818;37.084;2022-12-24T15:29:50;98756.75;;;2.65;77.09
72802;BME280;61891;55.818;37.084;2022-12-24T15:32:20;98803.44;;;3.00;77.17
72802;BME280;61891;55.818;37.084;2022-12-24T15:34:53;98811.16;;;3.01;77.05
72802;BME280;61891;55.818;37.084;2022-12-24T15:37:34;98820.41;;;3.05;77.45
72802;BME280;61891;55.818;37.084;2022-12-24T15:40:29;98817.22;;;3.02;76.97
72802;BME280;61891;55.818;37.084;2022-12-24T15:43:00;98786.84;;;2.80;76.81
72802;BME280;61891;55.818;37.084;2022-12-24T15:45:38;98831.03;;;3.04;77.09
72802;BME280;61891;55.818;37.084;2022-12-24T15:48:09;98843.97;;;3.05;77.10
72802;BME280;61891;55.818;37.084;2022-12-24T16:01:40;98860.47;;;2.96;77.05
72802;BME280;61891;55.818;37.084;2022-12-24T16:15:16;98881.69;;;2.93;76.90